createdAt,value
2016-10-03T00:00:58.581Z,0
2016-10-03T00:01:58.911Z,0
2016-10-03T00:02:58.618Z,0
2016-10-03T00:03:58.641Z,0
2016-10-03T00:04:58.662Z,0
2016-10-03T00:06:13.608Z,0
2016-10-03T00:06:58.704Z,0
2016-10-03T00:07:58.724Z,0
2016-10-03T00:08:59.055Z,0
2016-10-03T00:09:58.774Z,0
2016-10-03T00:10:58.788Z,0
2016-10-03T00:11:58.823Z,0
2016-10-03T00:12:58.834Z,0
2016-10-03T00:13:58.854Z,0
2016-10-03T00:14:58.879Z,0
2016-10-03T00:15:59.156Z,0
2016-10-03T00:17:58.939Z,0
2016-10-03T00:18:58.964Z,0
2016-10-03T00:20:28.832Z,0
2016-10-03T00:20:59.011Z,0
2016-10-03T00:22:13.952Z,0
2016-10-03T00:22:59.051Z,0
2016-10-03T00:23:59.075Z,0
2016-10-03T00:24:59.089Z,0
2016-10-03T00:26:14.040Z,0
2016-10-03T00:26:59.159Z,0
2016-10-03T00:27:59.169Z,0
2016-10-03T00:28:59.182Z,0
2016-10-03T00:29:59.195Z,0
2016-10-03T00:31:14.151Z,0
2016-10-03T00:31:59.294Z,0
2016-10-03T00:32:59.324Z,0
2016-10-03T00:34:14.214Z,0
2016-10-03T00:34:59.313Z,0
2016-10-03T00:35:59.386Z,0
2016-10-03T00:37:14.281Z,0
2016-10-03T00:37:59.369Z,0
2016-10-03T00:38:59.394Z,0
2016-10-03T00:39:59.420Z,0
2016-10-03T00:40:59.441Z,0
2016-10-03T00:41:59.463Z,0
2016-10-03T00:42:59.499Z,0
2016-10-03T00:44:00.752Z,0
2016-10-03T00:44:59.527Z,0
2016-10-03T00:45:59.539Z,0
2016-10-03T00:46:59.569Z,0
2016-10-03T00:47:59.607Z,0
2016-10-03T00:48:59.622Z,0
2016-10-03T00:49:59.630Z,0
2016-10-03T00:50:59.663Z,0
2016-10-03T00:52:14.593Z,0
2016-10-03T00:53:14.618Z,0
2016-10-03T00:53:59.715Z,0
2016-10-03T00:55:14.664Z,0
2016-10-03T00:55:59.757Z,0
2016-10-03T00:56:59.788Z,0
2016-10-03T00:58:14.724Z,0
2016-10-03T00:59:14.747Z,0
2016-10-03T00:59:59.843Z,0
2016-10-03T01:00:59.878Z,0
2016-10-03T01:01:59.885Z,0
2016-10-03T01:02:59.961Z,0
2016-10-03T01:03:59.930Z,0
2016-10-03T01:05:14.883Z,0
2016-10-03T01:05:59.986Z,0
2016-10-03T01:07:14.915Z,0
2016-10-03T01:08:00.016Z,0
2016-10-03T01:09:14.956Z,0
2016-10-03T01:10:00.112Z,0
2016-10-03T01:11:00.330Z,0
2016-10-03T01:12:00.113Z,0
2016-10-03T01:13:00.127Z,0
2016-10-03T01:14:00.144Z,0
2016-10-03T01:15:00.166Z,0
2016-10-03T01:16:00.180Z,0
2016-10-03T01:17:15.127Z,0
2016-10-03T01:18:15.153Z,0
2016-10-03T01:19:00.252Z,0
2016-10-03T01:20:15.203Z,0
2016-10-03T01:21:15.221Z,0
2016-10-03T01:22:00.329Z,0
2016-10-03T01:23:15.258Z,0
2016-10-03T01:24:00.404Z,0
2016-10-03T01:25:15.303Z,0
2016-10-03T01:26:00.419Z,0
2016-10-03T01:28:00.438Z,0
2016-10-03T01:29:00.461Z,0
2016-10-03T01:31:15.480Z,0
2016-10-03T01:32:15.451Z,0
2016-10-03T01:33:00.547Z,0
2016-10-03T01:34:00.579Z,0
2016-10-03T01:35:00.593Z,0
2016-10-03T01:36:00.637Z,0
2016-10-03T01:37:00.627Z,0
2016-10-03T01:38:15.581Z,0
2016-10-03T01:39:00.669Z,0
2016-10-03T01:40:00.701Z,0
2016-10-03T01:41:15.641Z,0
2016-10-03T01:42:15.657Z,0
2016-10-03T01:43:00.771Z,0
2016-10-03T01:44:00.776Z,0
2016-10-03T01:45:00.801Z,0
2016-10-03T01:46:00.823Z,0
2016-10-03T01:47:00.853Z,0
2016-10-03T01:48:00.874Z,0
2016-10-03T01:49:00.890Z,0
2016-10-03T01:50:00.956Z,0
2016-10-03T01:51:01.033Z,0
2016-10-03T01:52:00.956Z,0
2016-10-03T01:53:15.948Z,0
2016-10-03T01:54:00.989Z,0
2016-10-03T01:55:01.015Z,0
2016-10-03T01:56:01.034Z,0
2016-10-03T01:57:15.977Z,0
2016-10-03T01:58:01.080Z,0
2016-10-03T01:59:01.095Z,0
2016-10-03T02:00:16.058Z,0
2016-10-03T02:01:01.129Z,0
2016-10-03T02:03:01.433Z,0
2016-10-03T02:04:01.307Z,0
2016-10-03T02:05:01.270Z,0
2016-10-03T02:06:01.239Z,0
2016-10-03T02:07:01.264Z,0
2016-10-03T02:08:01.290Z,0
2016-10-03T02:09:01.302Z,0
2016-10-03T02:10:01.534Z,0
2016-10-03T02:11:01.346Z,0
2016-10-03T02:12:16.293Z,0
2016-10-03T02:13:01.392Z,0
2016-10-03T02:14:16.326Z,0
2016-10-03T02:15:01.436Z,0
2016-10-03T02:16:01.457Z,0
2016-10-03T02:17:01.484Z,0
2016-10-03T02:18:01.499Z,0
2016-10-03T02:19:01.517Z,0
2016-10-03T02:20:16.761Z,0
2016-10-03T02:21:01.555Z,0
2016-10-03T02:22:01.586Z,0
2016-10-03T02:23:01.851Z,0
2016-10-03T02:24:16.546Z,0
2016-10-03T02:25:01.637Z,0
2016-10-03T02:26:01.967Z,0
2016-10-03T02:27:01.735Z,0
2016-10-03T02:28:01.715Z,0
2016-10-03T02:29:01.727Z,0
2016-10-03T02:30:01.754Z,0
2016-10-03T02:31:02.010Z,0
2016-10-03T02:32:01.836Z,0
2016-10-03T02:33:01.811Z,0
2016-10-03T02:34:01.831Z,0
2016-10-03T02:35:01.849Z,0
2016-10-03T02:36:01.888Z,0
2016-10-03T02:37:01.892Z,0
2016-10-03T02:38:16.838Z,0
2016-10-03T02:39:01.937Z,0
2016-10-03T02:40:01.946Z,0
2016-10-03T02:41:16.897Z,0
2016-10-03T02:42:01.998Z,0
2016-10-03T02:43:02.065Z,0
2016-10-03T02:44:31.889Z,0
2016-10-03T02:45:02.056Z,0
2016-10-03T02:46:17.011Z,0
2016-10-03T02:47:02.101Z,0
2016-10-03T02:48:02.114Z,0
2016-10-03T02:49:02.151Z,0
2016-10-03T02:50:02.211Z,0
2016-10-03T02:52:02.221Z,0
2016-10-03T02:53:02.320Z,0
2016-10-03T02:54:02.242Z,0
2016-10-03T02:55:17.187Z,0
2016-10-03T02:56:17.200Z,0
2016-10-03T02:57:17.237Z,0
2016-10-03T02:58:02.321Z,0
2016-10-03T02:59:02.395Z,0
2016-10-03T03:00:17.291Z,0
2016-10-03T03:01:02.388Z,0
2016-10-03T03:02:02.399Z,0
2016-10-03T03:03:02.429Z,0
2016-10-03T03:04:02.451Z,0
2016-10-03T03:05:17.394Z,0
2016-10-03T03:06:02.495Z,0
2016-10-03T03:07:02.559Z,0
2016-10-03T03:08:02.786Z,0
2016-10-03T03:09:02.554Z,0
2016-10-03T03:10:02.572Z,0
2016-10-03T03:11:02.607Z,0
2016-10-03T03:12:17.792Z,0
2016-10-03T03:13:17.561Z,0
2016-10-03T03:14:02.653Z,0
2016-10-03T03:15:17.597Z,0
2016-10-03T03:16:17.631Z,0
2016-10-03T03:17:02.722Z,0
2016-10-03T03:18:02.748Z,0
2016-10-03T03:19:02.765Z,0
2016-10-03T03:20:17.700Z,0
2016-10-03T03:21:02.896Z,0
2016-10-03T03:22:02.828Z,0
2016-10-03T03:23:02.840Z,0
2016-10-03T03:25:17.798Z,0
2016-10-03T03:26:02.908Z,0
2016-10-03T03:27:02.943Z,0
2016-10-03T03:28:03.187Z,0
2016-10-03T03:29:02.962Z,0
2016-10-03T03:30:02.996Z,0
2016-10-03T03:31:03.020Z,0
2016-10-03T03:32:17.942Z,0
2016-10-03T03:33:03.041Z,0
2016-10-03T03:35:03.094Z,0
2016-10-03T03:36:03.421Z,0
2016-10-03T03:37:18.048Z,0
2016-10-03T03:38:18.085Z,0
2016-10-03T03:39:03.171Z,0
2016-10-03T03:40:03.192Z,0
2016-10-03T03:41:03.517Z,0
2016-10-03T03:42:03.228Z,0
2016-10-03T03:43:03.250Z,0
2016-10-03T03:44:18.191Z,0
2016-10-03T03:45:03.291Z,0
2016-10-03T03:46:03.506Z,0
2016-10-03T03:47:18.264Z,0
2016-10-03T03:48:18.266Z,0
2016-10-03T03:49:03.386Z,0
2016-10-03T03:50:03.595Z,0
2016-10-03T03:51:03.414Z,0
2016-10-03T03:52:03.445Z,0
2016-10-03T03:53:03.465Z,0
2016-10-03T03:54:03.477Z,0
2016-10-03T03:55:03.500Z,0
2016-10-03T03:56:03.818Z,0
2016-10-03T03:57:03.535Z,0
2016-10-03T03:58:03.562Z,0
2016-10-03T03:59:18.500Z,0
2016-10-03T04:00:03.641Z,0
2016-10-03T04:02:18.559Z,0
2016-10-03T04:03:18.635Z,0
2016-10-03T04:04:18.598Z,0
2016-10-03T04:05:03.699Z,0
2016-10-03T04:06:03.725Z,0
2016-10-03T04:07:03.734Z,0
2016-10-03T04:08:18.682Z,0
2016-10-03T04:09:03.785Z,0
2016-10-03T04:10:04.099Z,0
2016-10-03T04:12:03.851Z,0
2016-10-03T04:13:18.827Z,0
2016-10-03T04:14:03.886Z,0
2016-10-03T04:15:18.825Z,0
2016-10-03T04:16:33.776Z,0
2016-10-03T04:17:03.948Z,0
2016-10-03T04:18:03.967Z,0
2016-10-03T04:19:33.830Z,0
2016-10-03T04:20:04.614Z,0
2016-10-03T04:21:18.953Z,0
2016-10-03T04:22:18.964Z,0
2016-10-03T04:24:04.140Z,0
2016-10-03T04:25:04.111Z,0
2016-10-03T04:26:04.435Z,0
2016-10-03T04:27:19.067Z,0
2016-10-03T04:28:04.167Z,0
2016-10-03T04:29:04.192Z,0
2016-10-03T04:30:19.136Z,0
2016-10-03T04:31:19.209Z,0
2016-10-03T04:32:04.547Z,0
2016-10-03T04:33:04.266Z,0
2016-10-03T04:34:04.292Z,0
2016-10-03T04:35:19.224Z,0
2016-10-03T04:36:04.331Z,0
2016-10-03T04:37:04.350Z,0
2016-10-03T04:38:04.375Z,0
2016-10-03T04:39:04.395Z,0
2016-10-03T04:41:04.486Z,0
2016-10-03T04:42:04.454Z,0
2016-10-03T04:43:04.483Z,0
2016-10-03T04:44:19.410Z,0
2016-10-03T04:45:19.431Z,0
2016-10-03T04:47:19.471Z,0
2016-10-03T04:48:04.584Z,0
2016-10-03T04:49:04.845Z,0
2016-10-03T04:50:34.460Z,0
2016-10-03T04:51:19.550Z,0
2016-10-03T04:52:04.653Z,0
2016-10-03T04:53:04.680Z,0
2016-10-03T04:54:04.695Z,0
2016-10-03T04:55:04.724Z,0
2016-10-03T04:56:04.740Z,0
2016-10-03T04:57:04.767Z,0
2016-10-03T04:58:04.778Z,0
2016-10-03T04:59:04.801Z,0
2016-10-03T05:00:04.817Z,0
2016-10-03T05:01:04.843Z,0
2016-10-03T05:02:04.874Z,0
2016-10-03T05:03:04.888Z,0
2016-10-03T05:04:04.910Z,0
2016-10-03T05:05:04.922Z,0
2016-10-03T05:06:04.942Z,5
2016-10-03T05:07:19.881Z,5
2016-10-03T05:08:05.021Z,5
2016-10-03T05:09:05.305Z,5
2016-10-03T05:10:05.026Z,5
2016-10-03T05:11:05.050Z,5
2016-10-03T05:12:05.070Z,5
2016-10-03T05:13:20.000Z,5
2016-10-03T05:14:20.022Z,5
2016-10-03T05:15:05.130Z,10
2016-10-03T05:16:05.140Z,10
2016-10-03T05:17:05.176Z,10
2016-10-03T05:18:05.173Z,10
2016-10-03T05:19:20.125Z,10
2016-10-03T05:20:05.227Z,10
2016-10-03T05:21:05.239Z,15
2016-10-03T05:22:20.183Z,15
2016-10-03T05:23:05.273Z,15
2016-10-03T05:24:05.311Z,15
2016-10-03T05:25:05.323Z,15
2016-10-03T05:26:20.265Z,15
2016-10-03T05:27:05.383Z,20
2016-10-03T05:28:05.387Z,20
2016-10-03T05:29:05.400Z,20
2016-10-03T05:30:05.425Z,25
2016-10-03T05:31:05.746Z,25
2016-10-03T05:32:05.465Z,25
2016-10-03T05:33:05.489Z,25
2016-10-03T05:34:05.505Z,30
2016-10-03T05:35:20.699Z,30
2016-10-03T05:36:05.539Z,30
2016-10-03T05:37:05.563Z,35
2016-10-03T05:38:20.510Z,35
2016-10-03T05:39:05.803Z,35
2016-10-03T05:40:05.634Z,35
2016-10-03T05:41:05.951Z,35
2016-10-03T05:43:05.695Z,40
2016-10-03T05:44:05.707Z,40
2016-10-03T05:45:05.735Z,45
2016-10-03T05:46:05.756Z,45
2016-10-03T05:47:05.758Z,45
2016-10-03T05:48:05.783Z,50
2016-10-03T05:49:05.812Z,50
2016-10-03T05:50:20.746Z,50
2016-10-03T05:51:05.878Z,55
2016-10-03T05:52:05.870Z,55
2016-10-03T05:53:05.890Z,55
2016-10-03T05:54:20.836Z,110
2016-10-03T05:55:05.927Z,95
2016-10-03T05:56:20.868Z,330
2016-10-03T05:57:05.979Z,540
2016-10-03T05:58:05.992Z,750
2016-10-03T05:59:06.012Z,830
2016-10-03T06:00:06.129Z,745
2016-10-03T06:01:06.074Z,770
2016-10-03T06:02:06.079Z,750
2016-10-03T06:03:06.114Z,765
2016-10-03T06:04:06.123Z,790
2016-10-03T06:05:06.141Z,820
2016-10-03T06:06:06.162Z,850
2016-10-03T06:07:21.106Z,845
2016-10-03T06:08:06.214Z,835
2016-10-03T06:09:06.231Z,875
2016-10-03T06:10:21.188Z,905
2016-10-03T06:11:06.279Z,900
2016-10-03T06:12:21.221Z,900
2016-10-03T06:13:06.353Z,885
2016-10-03T06:14:06.351Z,800
2016-10-03T06:15:21.319Z,845
2016-10-03T06:16:06.400Z,895
2016-10-03T06:17:06.426Z,870
2016-10-03T06:18:06.456Z,860
2016-10-03T06:19:06.482Z,890
2016-10-03T06:20:06.507Z,925
2016-10-03T06:21:06.531Z,965
2016-10-03T06:22:21.796Z,1020
2016-10-03T06:23:21.505Z,1060
2016-10-03T06:24:21.534Z,1135
2016-10-03T06:25:06.640Z,1115
2016-10-03T06:26:21.596Z,1030
2016-10-03T06:28:06.717Z,1000
2016-10-03T06:29:06.749Z,990
2016-10-03T06:30:06.786Z,1065
2016-10-03T06:32:06.836Z,1050
2016-10-03T06:33:06.861Z,1100
2016-10-03T06:34:22.140Z,1125
2016-10-03T06:35:06.918Z,1195
2016-10-03T06:36:06.943Z,1165
2016-10-03T06:37:06.962Z,1215
2016-10-03T06:38:07.016Z,1225
2016-10-03T06:39:07.023Z,1140
2016-10-03T06:40:07.064Z,1135
2016-10-03T06:41:22.008Z,1205
2016-10-03T06:42:22.043Z,1150
2016-10-03T06:43:22.088Z,1135
2016-10-03T06:44:07.180Z,1155
2016-10-03T06:45:07.198Z,1190
2016-10-03T06:46:22.155Z,1125
2016-10-03T06:47:22.199Z,1080
2016-10-03T06:48:07.307Z,1145
2016-10-03T06:49:22.241Z,1190
2016-10-03T06:50:07.351Z,1185
2016-10-03T06:51:07.386Z,1140
2016-10-03T06:52:07.435Z,1130
2016-10-03T06:53:07.439Z,1105
2016-10-03T06:54:07.467Z,1090
2016-10-03T06:55:22.425Z,1095
2016-10-03T06:56:07.533Z,1070
2016-10-03T06:57:22.635Z,1045
2016-10-03T06:58:07.593Z,1070
2016-10-03T06:59:22.536Z,1135
2016-10-03T07:00:22.575Z,1110
2016-10-03T07:01:22.604Z,1090
2016-10-03T07:02:07.704Z,1120
2016-10-03T07:03:07.742Z,1090
2016-10-03T07:04:22.944Z,1125
2016-10-03T07:05:22.732Z,1070
2016-10-03T07:06:07.827Z,1060
2016-10-03T07:07:07.852Z,1070
2016-10-03T07:09:07.920Z,990
2016-10-03T07:10:22.875Z,1065
2016-10-03T07:11:07.990Z,1065
2016-10-03T07:12:08.261Z,865
2016-10-03T07:13:08.044Z,490
2016-10-03T07:14:23.003Z,285
2016-10-03T07:15:23.019Z,285
2016-10-03T07:16:08.135Z,280
2016-10-03T07:17:08.168Z,270
2016-10-03T07:18:23.129Z,270
2016-10-03T07:19:08.229Z,270
2016-10-03T07:20:08.260Z,270
2016-10-03T07:21:08.288Z,270
2016-10-03T07:22:08.313Z,270
2016-10-03T07:23:08.353Z,275
2016-10-03T07:24:08.374Z,270
2016-10-03T07:25:08.415Z,270
2016-10-03T07:26:23.369Z,270
2016-10-03T07:27:08.480Z,270
2016-10-03T07:28:08.501Z,270
2016-10-03T07:29:38.376Z,270
2016-10-03T07:30:08.864Z,270
2016-10-03T07:31:08.588Z,275
2016-10-03T07:32:23.543Z,265
2016-10-03T07:33:08.648Z,265
2016-10-03T07:34:08.679Z,265
2016-10-03T07:35:23.631Z,260
2016-10-03T07:36:08.738Z,260
2016-10-03T07:37:08.770Z,260
2016-10-03T07:38:08.794Z,260
2016-10-03T07:39:08.828Z,260
2016-10-03T07:40:08.868Z,260
2016-10-03T07:41:08.888Z,260
2016-10-03T07:42:08.912Z,260
2016-10-03T07:43:08.951Z,260
2016-10-03T07:44:08.987Z,260
2016-10-03T07:45:23.936Z,260
2016-10-03T07:46:23.957Z,260
2016-10-03T07:47:09.068Z,260
2016-10-03T07:48:24.324Z,260
2016-10-03T07:49:09.125Z,260
2016-10-03T07:50:09.155Z,260
2016-10-03T07:51:24.104Z,260
2016-10-03T07:52:24.132Z,260
2016-10-03T07:53:09.243Z,260
2016-10-03T07:54:24.187Z,260
2016-10-03T07:55:09.603Z,260
2016-10-03T07:56:09.333Z,260
2016-10-03T07:57:09.349Z,260
2016-10-03T07:58:24.319Z,260
2016-10-03T07:59:09.419Z,260
2016-10-03T08:00:24.621Z,260
2016-10-03T08:01:24.400Z,255
2016-10-03T08:02:09.497Z,255
2016-10-03T08:03:09.535Z,255
2016-10-03T08:04:09.557Z,255
2016-10-03T08:05:09.584Z,255
2016-10-03T08:06:09.614Z,255
2016-10-03T08:08:09.670Z,255
2016-10-03T08:09:09.703Z,250
2016-10-03T08:10:09.742Z,255
2016-10-03T08:12:09.800Z,250
2016-10-03T08:13:10.070Z,250
2016-10-03T08:14:09.852Z,250
2016-10-03T08:15:09.871Z,250
2016-10-03T08:16:09.902Z,250
2016-10-03T08:17:24.852Z,250
2016-10-03T08:18:10.158Z,250
2016-10-03T08:19:09.987Z,250
2016-10-03T08:20:11.069Z,250
2016-10-03T08:21:10.043Z,250
2016-10-03T08:22:10.066Z,250
2016-10-03T08:23:10.103Z,250
2016-10-03T08:24:25.065Z,250
2016-10-03T08:25:25.278Z,250
2016-10-03T08:26:10.186Z,250
2016-10-03T08:27:25.137Z,250
2016-10-03T08:28:10.252Z,250
2016-10-03T08:29:10.279Z,245
2016-10-03T08:30:10.304Z,245
2016-10-03T08:31:10.429Z,245
2016-10-03T08:32:25.305Z,245
2016-10-03T08:33:10.389Z,245
2016-10-03T08:34:10.715Z,245
2016-10-03T08:35:10.465Z,245
2016-10-03T08:36:10.476Z,245
2016-10-03T08:37:25.421Z,245
2016-10-03T08:38:10.519Z,245
2016-10-03T08:39:10.550Z,245
2016-10-03T08:40:25.507Z,245
2016-10-03T08:41:10.624Z,245
2016-10-03T08:42:10.647Z,245
2016-10-03T08:43:10.977Z,245
2016-10-03T08:44:10.698Z,245
2016-10-03T08:45:25.648Z,245
2016-10-03T08:46:10.753Z,245
2016-10-03T08:47:10.776Z,245
2016-10-03T08:48:10.815Z,245
2016-10-03T08:49:10.833Z,245
2016-10-03T08:50:25.790Z,240
2016-10-03T08:51:25.818Z,240
2016-10-03T08:52:10.925Z,240
2016-10-03T08:53:10.960Z,240
2016-10-03T08:54:10.971Z,240
2016-10-03T08:55:11.011Z,240
2016-10-03T08:56:11.134Z,240
2016-10-03T08:57:11.064Z,240
2016-10-03T08:58:11.082Z,240
2016-10-03T08:59:11.114Z,240
2016-10-03T09:00:11.144Z,240
2016-10-03T09:01:11.176Z,240
2016-10-03T09:02:11.200Z,235
2016-10-03T09:03:11.233Z,240
2016-10-03T09:04:26.183Z,235
2016-10-03T09:05:11.286Z,235
2016-10-03T09:06:11.567Z,235
2016-10-03T09:07:11.342Z,235
2016-10-03T09:08:26.293Z,240
2016-10-03T09:09:11.392Z,240
2016-10-03T09:10:11.424Z,240
2016-10-03T09:11:26.628Z,235
2016-10-03T09:12:11.489Z,235
2016-10-03T09:13:11.515Z,235
2016-10-03T09:14:26.661Z,235
2016-10-03T09:15:11.570Z,235
2016-10-03T09:16:11.597Z,235
2016-10-03T09:17:11.640Z,235
2016-10-03T09:18:11.648Z,235
2016-10-03T09:19:11.683Z,235
2016-10-03T09:20:26.632Z,230
2016-10-03T09:21:11.732Z,230
2016-10-03T09:23:11.794Z,230
2016-10-03T09:24:11.812Z,230
2016-10-03T09:25:11.842Z,230
2016-10-03T09:26:11.882Z,230
2016-10-03T09:27:11.897Z,230
2016-10-03T09:28:11.935Z,230
2016-10-03T09:29:11.965Z,230
2016-10-03T09:30:11.993Z,230
2016-10-03T09:31:12.026Z,230
2016-10-03T09:32:12.041Z,230
2016-10-03T09:33:12.070Z,225
2016-10-03T09:34:27.017Z,220
2016-10-03T09:35:12.124Z,175
2016-10-03T09:36:27.092Z,230
2016-10-03T09:37:12.184Z,235
2016-10-03T09:38:12.209Z,235
2016-10-03T09:39:12.240Z,235
2016-10-03T09:40:27.190Z,230
2016-10-03T09:41:12.288Z,230
2016-10-03T09:42:12.340Z,225
2016-10-03T09:44:12.379Z,225
2016-10-03T09:46:12.431Z,225
2016-10-03T09:47:12.461Z,220
2016-10-03T09:48:27.415Z,225
2016-10-03T09:49:12.532Z,220
2016-10-03T09:50:27.716Z,225
2016-10-03T09:51:12.577Z,220
2016-10-03T09:52:27.525Z,220
2016-10-03T09:53:12.627Z,220
2016-10-03T09:54:12.653Z,220
2016-10-03T09:55:27.611Z,220
2016-10-03T09:56:12.718Z,220
2016-10-03T09:57:12.744Z,220
2016-10-03T09:58:12.775Z,220
2016-10-03T09:59:12.800Z,220
2016-10-03T10:00:13.089Z,205
2016-10-03T10:01:27.781Z,230
2016-10-03T10:02:27.799Z,220
2016-10-03T10:03:12.902Z,205
2016-10-03T10:04:12.947Z,230
2016-10-03T10:05:12.967Z,230
2016-10-03T10:06:13.003Z,225
2016-10-03T10:07:27.954Z,225
2016-10-03T10:08:13.044Z,225
2016-10-03T10:09:13.077Z,225
2016-10-03T10:10:13.124Z,230
2016-10-03T10:11:13.129Z,230
2016-10-03T10:12:13.158Z,230
2016-10-03T10:13:13.194Z,230
2016-10-03T10:14:13.219Z,230
2016-10-03T10:15:13.238Z,225
2016-10-03T10:16:13.275Z,225
2016-10-03T10:18:28.246Z,220
2016-10-03T10:19:13.362Z,220
2016-10-03T10:20:13.375Z,205
2016-10-03T10:21:13.411Z,200
2016-10-03T10:22:13.424Z,115
2016-10-03T10:23:13.453Z,115
2016-10-03T10:24:13.492Z,115
2016-10-03T10:25:13.513Z,105
2016-10-03T10:26:13.539Z,100
2016-10-03T10:27:13.572Z,100
2016-10-03T10:28:13.593Z,100
2016-10-03T10:29:13.618Z,100
2016-10-03T10:30:13.658Z,110
2016-10-03T10:31:13.659Z,165
2016-10-03T10:32:13.701Z,165
2016-10-03T10:33:13.734Z,165
2016-10-03T10:34:13.748Z,160
2016-10-03T10:35:28.707Z,160
2016-10-03T10:36:28.724Z,160
2016-10-03T10:37:13.830Z,155
2016-10-03T10:38:29.029Z,155
2016-10-03T10:39:28.806Z,155
2016-10-03T10:41:13.926Z,150
2016-10-03T10:42:13.957Z,135
2016-10-03T10:43:13.988Z,110
2016-10-03T10:44:14.012Z,115
2016-10-03T10:45:14.038Z,140
2016-10-03T10:46:14.064Z,145
2016-10-03T10:48:14.125Z,150
2016-10-03T10:49:14.153Z,115
2016-10-03T10:50:14.165Z,140
2016-10-03T10:51:14.442Z,105
2016-10-03T10:52:14.213Z,110
2016-10-03T10:53:14.252Z,135
2016-10-03T10:54:14.278Z,125
2016-10-03T10:55:29.218Z,140
2016-10-03T10:56:14.315Z,140
2016-10-03T10:57:14.348Z,110
2016-10-03T10:58:14.384Z,130
2016-10-03T10:59:14.645Z,105
2016-10-03T11:00:14.430Z,110
2016-10-03T11:01:29.368Z,110
2016-10-03T11:02:14.482Z,130
2016-10-03T11:03:14.497Z,110
2016-10-03T11:04:14.528Z,120
2016-10-03T11:05:14.557Z,145
2016-10-03T11:06:14.583Z,140
2016-10-03T11:07:14.604Z,125
2016-10-03T11:08:14.617Z,110
2016-10-03T11:09:14.657Z,135
2016-10-03T11:10:14.683Z,100
2016-10-03T11:11:29.628Z,100
2016-10-03T11:12:14.721Z,140
2016-10-03T11:13:14.753Z,135
2016-10-03T11:14:29.702Z,135
2016-10-03T11:15:14.803Z,135
2016-10-03T11:16:15.085Z,90
2016-10-03T11:17:14.850Z,95
2016-10-03T11:18:14.887Z,95
2016-10-03T11:19:14.908Z,100
2016-10-03T11:20:29.855Z,120
2016-10-03T11:21:14.964Z,145
2016-10-03T11:23:15.003Z,150
2016-10-03T11:24:15.055Z,155
2016-10-03T11:25:15.059Z,155
2016-10-03T11:26:15.081Z,155
2016-10-03T11:27:30.033Z,125
2016-10-03T11:28:15.152Z,125
2016-10-03T11:29:15.159Z,120
2016-10-03T11:30:15.189Z,115
2016-10-03T11:31:15.200Z,115
2016-10-03T11:32:15.232Z,115
2016-10-03T11:33:15.266Z,120
2016-10-03T11:34:15.298Z,125
2016-10-03T11:35:15.310Z,125
2016-10-03T11:36:15.337Z,120
2016-10-03T11:37:30.284Z,125
2016-10-03T11:38:15.384Z,150
2016-10-03T11:39:15.418Z,180
2016-10-03T11:40:15.436Z,175
2016-10-03T11:41:30.385Z,180
2016-10-03T11:42:30.410Z,180
2016-10-03T11:43:15.512Z,175
2016-10-03T11:44:15.538Z,185
2016-10-03T11:46:15.587Z,185
2016-10-03T11:47:15.618Z,175
2016-10-03T11:49:30.589Z,125
2016-10-03T11:50:15.696Z,165
2016-10-03T11:51:15.723Z,125
2016-10-03T11:52:15.749Z,165
2016-10-03T11:53:15.779Z,160
2016-10-03T11:54:30.717Z,140
2016-10-03T11:55:15.819Z,125
2016-10-03T11:56:15.845Z,130
2016-10-03T11:57:15.871Z,125
2016-10-03T11:58:15.892Z,130
2016-10-03T11:59:15.918Z,130
2016-10-03T12:00:15.948Z,130
2016-10-03T12:02:16.001Z,165
2016-10-03T12:03:16.029Z,185
2016-10-03T12:04:16.051Z,170
2016-10-03T12:05:16.372Z,135
2016-10-03T12:06:16.096Z,140
2016-10-03T12:07:16.116Z,175
2016-10-03T12:08:16.144Z,175
2016-10-03T12:09:31.100Z,190
2016-10-03T12:11:16.426Z,195
2016-10-03T12:12:16.858Z,195
2016-10-03T12:13:16.386Z,190
2016-10-03T12:14:31.223Z,185
2016-10-03T12:15:16.328Z,185
2016-10-03T12:16:16.345Z,180
2016-10-03T12:17:16.391Z,130
2016-10-03T12:18:16.408Z,125
2016-10-03T12:19:16.430Z,120
2016-10-03T12:20:16.704Z,125
2016-10-03T12:21:16.474Z,120
2016-10-03T12:22:31.433Z,115
2016-10-03T12:23:16.524Z,115
2016-10-03T12:24:16.566Z,110
2016-10-03T12:25:16.589Z,115
2016-10-03T12:26:16.848Z,120
2016-10-03T12:27:31.564Z,130
2016-10-03T12:28:17.704Z,130
2016-10-03T12:29:16.696Z,135
2016-10-03T12:30:31.633Z,140
2016-10-03T12:31:31.661Z,140
2016-10-03T12:32:17.067Z,170
2016-10-03T12:33:16.793Z,185
2016-10-03T12:34:31.739Z,180
2016-10-03T12:35:16.840Z,180
2016-10-03T12:36:31.784Z,170
2016-10-03T12:38:16.917Z,170
2016-10-03T12:39:16.942Z,170
2016-10-03T12:40:16.974Z,165
2016-10-03T12:41:16.981Z,165
2016-10-03T12:42:17.025Z,165
2016-10-03T12:43:17.043Z,170
2016-10-03T12:44:17.063Z,165
2016-10-03T12:46:32.040Z,125
2016-10-03T12:47:17.140Z,115
2016-10-03T12:48:17.376Z,110
2016-10-03T12:49:17.196Z,110
2016-10-03T12:50:17.222Z,120
2016-10-03T12:51:17.249Z,165
2016-10-03T12:52:17.273Z,175
2016-10-03T12:53:17.298Z,175
2016-10-03T12:54:17.322Z,175
2016-10-03T12:55:17.354Z,175
2016-10-03T12:56:17.377Z,170
2016-10-03T12:57:17.395Z,160
2016-10-03T12:58:32.350Z,155
2016-10-03T12:59:17.448Z,150
2016-10-03T13:00:32.397Z,155
2016-10-03T13:01:32.429Z,150
2016-10-03T13:02:32.450Z,150
2016-10-03T13:03:17.559Z,150
2016-10-03T13:04:17.586Z,150
2016-10-03T13:05:17.599Z,150
2016-10-03T13:06:17.643Z,150
2016-10-03T13:08:17.686Z,155
2016-10-03T13:09:17.764Z,155
2016-10-03T13:10:17.732Z,140
2016-10-03T13:11:17.753Z,150
2016-10-03T13:12:17.785Z,150
2016-10-03T13:13:17.812Z,155
2016-10-03T13:14:17.833Z,155
2016-10-03T13:15:17.924Z,150
2016-10-03T13:16:33.437Z,155
2016-10-03T13:17:32.834Z,100
2016-10-03T13:18:17.941Z,100
2016-10-03T13:19:17.957Z,130
2016-10-03T13:20:17.983Z,150
2016-10-03T13:21:18.027Z,160
2016-10-03T13:22:18.043Z,155
2016-10-03T13:23:18.068Z,155
2016-10-03T13:24:18.093Z,110
2016-10-03T13:25:33.035Z,100
2016-10-03T13:26:18.136Z,120
2016-10-03T13:27:18.163Z,150
2016-10-03T13:28:18.391Z,150
2016-10-03T13:29:33.141Z,150
2016-10-03T13:30:33.165Z,150
2016-10-03T13:31:18.269Z,110
2016-10-03T13:32:48.139Z,150
2016-10-03T13:33:33.245Z,160
2016-10-03T13:34:18.335Z,155
2016-10-03T13:35:33.288Z,155
2016-10-03T13:36:18.400Z,150
2016-10-03T13:37:18.416Z,115
2016-10-03T13:38:18.467Z,115
2016-10-03T13:39:18.465Z,115
2016-10-03T13:40:18.496Z,110
2016-10-03T13:41:18.532Z,110
2016-10-03T13:42:18.803Z,105
2016-10-03T13:43:18.573Z,105
2016-10-03T13:44:18.602Z,135
2016-10-03T13:46:18.647Z,150
2016-10-03T13:48:19.076Z,125
2016-10-03T13:49:34.028Z,95
2016-10-03T13:50:18.748Z,95
2016-10-03T13:51:18.778Z,95
2016-10-03T13:52:18.801Z,100
2016-10-03T13:53:18.822Z,95
2016-10-03T13:54:18.853Z,150
2016-10-03T13:55:33.814Z,150
2016-10-03T13:56:18.903Z,150
2016-10-03T13:57:33.855Z,145
2016-10-03T13:58:18.956Z,145
2016-10-03T13:59:18.983Z,155
2016-10-03T14:00:19.208Z,145
2016-10-03T14:01:33.950Z,160
2016-10-03T14:02:19.056Z,160
2016-10-03T14:03:19.078Z,160
2016-10-03T14:04:34.028Z,165
2016-10-03T14:05:34.061Z,165
2016-10-03T14:06:19.160Z,165
2016-10-03T14:07:19.176Z,165
2016-10-03T14:08:19.211Z,165
2016-10-03T14:09:34.153Z,165
2016-10-03T14:10:19.254Z,160
2016-10-03T14:11:19.582Z,160
2016-10-03T14:12:19.599Z,160
2016-10-03T14:13:19.637Z,165
2016-10-03T14:14:19.356Z,165
2016-10-03T14:15:19.681Z,170
2016-10-03T14:16:19.402Z,165
2016-10-03T14:17:19.445Z,165
2016-10-03T14:18:19.454Z,165
2016-10-03T14:19:19.485Z,165
2016-10-03T14:20:19.501Z,165
2016-10-03T14:21:34.450Z,165
2016-10-03T14:22:34.483Z,165
2016-10-03T14:23:20.131Z,165
2016-10-03T14:24:19.763Z,165
2016-10-03T14:25:19.635Z,165
2016-10-03T14:26:19.664Z,165
2016-10-03T14:27:19.692Z,160
2016-10-03T14:28:19.710Z,160
2016-10-03T14:29:19.739Z,160
2016-10-03T14:30:20.007Z,160
2016-10-03T14:31:19.791Z,160
2016-10-03T14:32:20.122Z,160
2016-10-03T14:33:49.686Z,155
2016-10-03T14:34:19.866Z,155
2016-10-03T14:35:34.805Z,155
2016-10-03T14:36:19.913Z,150
2016-10-03T14:37:34.862Z,155
2016-10-03T14:38:19.965Z,150
2016-10-03T14:39:19.999Z,150
2016-10-03T14:40:20.011Z,150
2016-10-03T14:41:20.037Z,150